createdAt,value
2018-02-12T00:00:22.079Z,1.34
2018-02-12T00:01:22.089Z,1.29
2018-02-12T00:02:22.117Z,1.26
2018-02-12T00:03:22.095Z,1.22
2018-02-12T00:04:22.091Z,1.21
2018-02-12T00:05:22.087Z,1.19
2018-02-12T00:06:22.084Z,1.12
2018-02-12T00:07:22.141Z,1.15
2018-02-12T00:08:22.085Z,1.1
2018-02-12T00:09:22.110Z,1.03
2018-02-12T00:10:22.087Z,1.06
2018-02-12T00:11:22.074Z,0.99
2018-02-12T00:12:22.124Z,0.97
2018-02-12T00:13:22.079Z,0.95
2018-02-12T00:14:22.093Z,0.95
2018-02-12T00:15:22.081Z,0.92
2018-02-12T00:16:22.082Z,0.91
2018-02-12T00:17:22.104Z,0.88
2018-02-12T00:18:22.095Z,0.9
2018-02-12T00:19:22.345Z,0.9
2018-02-12T00:20:22.316Z,0.82
2018-02-12T00:21:22.325Z,0.88
2018-02-12T00:22:22.347Z,0.82
2018-02-12T00:23:22.314Z,0.79
2018-02-12T00:24:22.325Z,0.77
2018-02-12T00:25:22.326Z,0.79
2018-02-12T00:26:22.345Z,0.82
2018-02-12T00:27:22.333Z,0.8
2018-02-12T00:28:22.326Z,0.8
2018-02-12T00:29:22.322Z,0.82
2018-02-12T00:30:22.339Z,0.83
2018-02-12T00:31:22.369Z,0.84
2018-02-12T00:34:22.352Z,0.79
2018-02-12T00:35:22.349Z,0.83
2018-02-12T00:36:22.338Z,0.86
2018-02-12T00:37:22.343Z,0.81
2018-02-12T00:38:22.323Z,0.84
2018-02-12T00:39:22.373Z,0.85
2018-02-12T00:40:22.335Z,0.83
2018-02-12T00:41:22.341Z,0.85
2018-02-12T00:42:22.348Z,0.84
2018-02-12T00:43:22.330Z,0.85
2018-02-12T00:44:22.336Z,0.86
2018-02-12T00:45:22.340Z,0.87
2018-02-12T00:46:22.333Z,0.85
2018-02-12T00:47:22.343Z,0.83
2018-02-12T00:48:22.390Z,0.88
2018-02-12T00:49:22.602Z,0.86
2018-02-12T00:50:22.617Z,0.86
2018-02-12T00:51:22.606Z,0.82
2018-02-12T00:52:22.606Z,0.87
2018-02-12T00:53:22.599Z,0.9
2018-02-12T00:54:22.591Z,0.87
2018-02-12T00:55:22.612Z,0.89
2018-02-12T00:56:22.612Z,0.9
2018-02-12T00:59:29.943Z,0.9
2018-02-12T01:00:22.619Z,0.88
2018-02-12T01:01:22.610Z,0.9
2018-02-12T01:02:22.633Z,0.9
2018-02-12T01:03:22.627Z,0.87
2018-02-12T01:04:22.601Z,0.87
2018-02-12T01:05:22.614Z,0.87
2018-02-12T01:06:23.178Z,0.87
2018-02-12T01:07:22.608Z,0.89
2018-02-12T01:08:22.747Z,0.85
2018-02-12T01:09:22.611Z,0.84
2018-02-12T01:10:22.610Z,0.85
2018-02-12T01:11:22.603Z,0.87
2018-02-12T01:12:22.638Z,0.88
2018-02-12T01:13:22.651Z,0.87
2018-02-12T01:14:22.623Z,0.87
2018-02-12T01:15:22.619Z,0.85
2018-02-12T01:16:22.601Z,0.84
2018-02-12T01:17:22.635Z,0.86
2018-02-12T01:18:22.624Z,0.88
2018-02-12T01:19:22.887Z,0.88
2018-02-12T01:20:22.857Z,0.89
2018-02-12T01:21:22.879Z,0.87
2018-02-12T01:22:22.879Z,0.87
2018-02-12T01:23:22.896Z,0.87
2018-02-12T01:24:22.859Z,0.88
2018-02-12T01:25:22.857Z,0.89
2018-02-12T01:26:22.892Z,0.88
2018-02-12T01:27:22.872Z,0.89
2018-02-12T01:28:22.874Z,0.85
2018-02-12T01:29:22.871Z,0.89
2018-02-12T01:30:22.892Z,0.9
2018-02-12T01:31:22.889Z,0.89
2018-02-12T01:32:23.898Z,0.9
2018-02-12T01:33:22.878Z,0.91
2018-02-12T01:34:22.884Z,0.89
2018-02-12T01:35:22.876Z,0.86
2018-02-12T01:36:22.907Z,0.85
2018-02-12T01:37:22.857Z,0.85
2018-02-12T01:38:23.149Z,0.85
2018-02-12T01:39:22.887Z,0.86
2018-02-12T01:40:22.866Z,0.82
2018-02-12T01:41:22.873Z,0.82
2018-02-12T01:42:22.881Z,0.81
2018-02-12T01:43:22.895Z,0.81
2018-02-12T01:44:22.865Z,0.81
2018-02-12T01:45:22.990Z,0.8
2018-02-12T01:46:22.866Z,0.79
2018-02-12T01:47:22.874Z,0.79
2018-02-12T01:48:22.862Z,0.77
2018-02-12T01:49:22.124Z,0.73
2018-02-12T01:50:22.086Z,0.73
2018-02-12T01:51:22.085Z,0.71
2018-02-12T01:52:22.086Z,0.72
2018-02-12T01:53:22.106Z,0.71
2018-02-12T01:54:22.106Z,0.62
2018-02-12T01:55:22.118Z,0.65
2018-02-12T01:56:22.079Z,0.65
2018-02-12T01:57:22.076Z,0.62
2018-02-12T01:58:22.093Z,0.66
2018-02-12T01:59:22.090Z,0.64
2018-02-12T02:00:25.066Z,0.56
2018-02-12T02:01:22.093Z,0.56
2018-02-12T02:02:26.868Z,0.58
2018-02-12T02:03:22.071Z,0.54
2018-02-12T02:04:22.227Z,0.51
2018-02-12T02:05:22.511Z,0.51
2018-02-12T02:06:23.991Z,0.54
2018-02-12T02:07:23.217Z,0.51
2018-02-12T02:08:24.927Z,0.51
2018-02-12T02:09:23.967Z,0.54
2018-02-12T02:10:22.092Z,0.48
2018-02-12T02:11:23.786Z,0.57
2018-02-12T02:12:24.288Z,0.54
2018-02-12T02:13:22.094Z,0.54
2018-02-12T02:14:22.118Z,0.54
2018-02-12T02:15:22.088Z,0.57
2018-02-12T02:16:22.091Z,0.56
2018-02-12T02:17:23.301Z,0.57
2018-02-12T02:18:22.096Z,0.6
2018-02-12T02:19:25.576Z,0.57
2018-02-12T02:20:23.287Z,0.61
2018-02-12T02:21:22.817Z,0.6
2018-02-12T02:22:24.007Z,0.56
2018-02-12T02:23:22.828Z,0.62
2018-02-12T02:24:26.077Z,0.64
2018-02-12T02:25:22.826Z,0.62
2018-02-12T02:26:22.819Z,0.63
2018-02-12T02:27:22.829Z,0.61
2018-02-12T02:28:23.324Z,0.59
2018-02-12T02:29:22.843Z,0.65
2018-02-12T02:30:26.021Z,0.64
2018-02-12T02:31:22.835Z,0.62
2018-02-12T02:32:22.831Z,0.6
2018-02-12T02:33:24.665Z,0.63
2018-02-12T02:34:22.877Z,0.67
2018-02-12T02:35:22.853Z,0.63
2018-02-12T02:36:23.898Z,0.61
2018-02-12T02:37:22.822Z,0.65
2018-02-12T02:38:25.300Z,0.63
2018-02-12T02:39:22.868Z,0.63
2018-02-12T02:40:22.862Z,0.63
2018-02-12T02:41:22.848Z,0.61
2018-02-12T02:42:22.842Z,0.63
2018-02-12T02:43:22.866Z,0.62
2018-02-12T02:44:31.603Z,0.62
2018-02-12T02:45:23.478Z,0.62
2018-02-12T02:46:24.160Z,0.62
2018-02-12T02:47:22.837Z,0.58
2018-02-12T02:48:22.840Z,0.57
2018-02-12T02:49:22.819Z,0.6
2018-02-12T02:50:22.852Z,0.59
2018-02-12T02:51:22.119Z,0.57
2018-02-12T02:52:22.108Z,0.58
2018-02-12T02:53:22.128Z,0.54
2018-02-12T02:54:22.786Z,0.54
2018-02-12T02:55:22.127Z,0.54
2018-02-12T02:56:26.653Z,0.53
2018-02-12T02:57:23.085Z,0.51
2018-02-12T02:58:22.117Z,0.53
2018-02-12T02:59:24.201Z,0.49
2018-02-12T03:00:24.029Z,0.51
2018-02-12T03:01:24.116Z,0.51
2018-02-12T03:02:22.123Z,0.51
2018-02-12T03:03:24.944Z,0.5
2018-02-12T03:04:22.134Z,0.5
2018-02-12T03:05:23.980Z,0.46
2018-02-12T03:06:29.866Z,0.46
2018-02-12T03:07:23.163Z,0.45
2018-02-12T03:08:24.753Z,0.45
2018-02-12T03:09:22.109Z,0.41
2018-02-12T03:10:22.413Z,0.42
2018-02-12T03:11:22.112Z,0.45
2018-02-12T03:13:22.132Z,0.44
2018-02-12T03:14:22.131Z,0.44
2018-02-12T03:15:25.971Z,0.43
2018-02-12T03:16:22.173Z,0.39
2018-02-12T03:17:23.863Z,0.4
2018-02-12T03:18:22.111Z,0.41
2018-02-12T03:19:23.506Z,0.4
2018-02-12T03:20:22.115Z,0.4
2018-02-12T03:21:22.253Z,0.39
2018-02-12T03:22:22.493Z,0.39
2018-02-12T03:23:22.479Z,0.39
2018-02-12T03:24:23.128Z,0.38
2018-02-12T03:25:22.483Z,0.39
2018-02-12T03:26:22.883Z,0.36
2018-02-12T03:27:22.480Z,0.38
2018-02-12T03:28:22.459Z,0.34
2018-02-12T03:29:24.048Z,0.37
2018-02-12T03:30:26.999Z,0.4
2018-02-12T03:31:31.614Z,0.4
2018-02-12T03:32:22.473Z,0.41
2018-02-12T03:33:24.551Z,0.38
2018-02-12T03:34:22.501Z,0.4
2018-02-12T03:35:25.158Z,0.41
2018-02-12T03:36:25.430Z,0.4
2018-02-12T03:37:22.479Z,0.4
2018-02-12T03:38:26.224Z,0.4
2018-02-12T03:39:22.754Z,0.44
2018-02-12T03:40:22.489Z,0.44
2018-02-12T03:41:22.479Z,0.46
2018-02-12T03:42:22.470Z,0.4
2018-02-12T03:43:22.473Z,0.42
2018-02-12T03:44:23.353Z,0.42
2018-02-12T03:45:22.475Z,0.41
2018-02-12T03:46:25.265Z,0.44
2018-02-12T03:47:22.501Z,0.42
2018-02-12T03:48:25.514Z,0.45
2018-02-12T03:49:27.634Z,0.43
2018-02-12T03:50:23.370Z,0.45
2018-02-12T03:51:22.478Z,0.46
2018-02-12T03:52:24.126Z,0.44
2018-02-12T03:53:24.059Z,0.46
2018-02-12T03:54:22.741Z,0.46
2018-02-12T03:55:22.758Z,0.46
2018-02-12T03:56:22.718Z,0.48
2018-02-12T03:57:22.727Z,0.47
2018-02-12T03:58:23.352Z,0.51
2018-02-12T03:59:22.726Z,0.47
2018-02-12T04:00:24.057Z,0.49
2018-02-12T04:01:27.004Z,0.54
2018-02-12T04:02:22.733Z,0.52
2018-02-12T04:03:22.716Z,0.58
2018-02-12T04:04:22.735Z,0.57
2018-02-12T04:05:22.748Z,0.56
2018-02-12T04:06:22.724Z,0.62
2018-02-12T04:07:22.727Z,0.63
2018-02-12T04:08:33.914Z,0.63
2018-02-12T04:09:22.711Z,0.67
2018-02-12T04:10:24.389Z,0.68
2018-02-12T04:11:22.724Z,0.63
2018-02-12T04:12:31.801Z,0.67
2018-02-12T04:13:22.776Z,0.68
2018-02-12T04:14:22.819Z,0.69
2018-02-12T04:15:23.066Z,0.76
2018-02-12T04:16:24.370Z,0.76
2018-02-12T04:17:22.734Z,0.7
2018-02-12T04:18:22.738Z,0.71
2018-02-12T04:19:25.671Z,0.69
2018-02-12T04:20:22.751Z,0.72
2018-02-12T04:21:22.727Z,0.7
2018-02-12T04:22:22.973Z,0.66
2018-02-12T04:23:22.987Z,0.68
2018-02-12T04:24:22.967Z,0.67
2018-02-12T04:25:23.027Z,0.73
2018-02-12T04:26:23.011Z,0.69
2018-02-12T04:27:23.415Z,0.65
2018-02-12T04:28:22.981Z,0.66
2018-02-12T04:29:22.985Z,0.7
2018-02-12T04:30:22.992Z,0.69
2018-02-12T04:31:23.074Z,0.7
2018-02-12T04:32:24.430Z,0.68
2018-02-12T04:33:27.307Z,0.7
2018-02-12T04:34:23.225Z,0.68
2018-02-12T04:35:25.710Z,0.68
2018-02-12T04:36:23.350Z,0.71
2018-02-12T04:37:22.979Z,0.66
2018-02-12T04:38:24.367Z,0.65
2018-02-12T04:39:23.001Z,0.66
2018-02-12T04:40:23.018Z,0.68
2018-02-12T04:41:23.041Z,0.66
2018-02-12T04:42:22.983Z,0.67
2018-02-12T04:43:30.038Z,0.61
2018-02-12T04:44:22.956Z,0.62
2018-02-12T04:45:22.999Z,0.65
2018-02-12T04:46:22.962Z,0.62
2018-02-12T04:47:22.982Z,0.65
2018-02-12T04:48:22.972Z,0.62
2018-02-12T04:49:23.111Z,0.66
2018-02-12T04:50:22.992Z,0.6
2018-02-12T04:51:24.315Z,0.62
2018-02-12T04:52:24.403Z,0.61
2018-02-12T04:53:22.172Z,0.65
2018-02-12T04:54:22.178Z,0.64
2018-02-12T04:55:22.192Z,0.64
2018-02-12T04:56:22.181Z,0.6
2018-02-12T04:57:27.466Z,0.59
2018-02-12T04:58:22.184Z,0.59
2018-02-12T04:59:22.189Z,0.66
2018-02-12T05:00:22.486Z,0.59
2018-02-12T05:01:22.188Z,0.6
2018-02-12T05:02:24.372Z,0.61
2018-02-12T05:03:25.224Z,0.6
2018-02-12T05:04:22.174Z,0.59
2018-02-12T05:05:22.224Z,0.59
2018-02-12T05:06:22.186Z,0.66
2018-02-12T05:07:26.547Z,0.61
2018-02-12T05:08:24.033Z,0.63
2018-02-12T05:09:24.213Z,0.61
2018-02-12T05:10:22.181Z,0.61
2018-02-12T05:11:25.613Z,0.66
2018-02-12T05:12:22.220Z,0.65
2018-02-12T05:13:23.127Z,0.63
2018-02-12T05:14:24.145Z,0.59
2018-02-12T05:15:22.384Z,0.59
2018-02-12T05:16:22.201Z,0.63
2018-02-12T05:17:24.270Z,0.62
2018-02-12T05:18:22.199Z,0.64
2018-02-12T05:19:22.202Z,0.64
2018-02-12T05:20:22.182Z,0.63
2018-02-12T05:22:22.187Z,0.61
2018-02-12T05:23:41.906Z,0.61
2018-02-12T05:24:41.737Z,0.6
2018-02-12T05:25:41.732Z,0.65
2018-02-12T05:26:41.751Z,0.61
2018-02-12T05:27:41.734Z,0.62
2018-02-12T05:28:41.764Z,0.61
2018-02-12T05:29:42.410Z,0.6
2018-02-12T05:30:41.737Z,0.66
2018-02-12T05:31:43.841Z,0.64
2018-02-12T05:32:43.481Z,0.62
2018-02-12T05:33:45.885Z,0.67
2018-02-12T05:34:41.744Z,0.64
2018-02-12T05:35:41.722Z,0.66
2018-02-12T05:36:43.020Z,0.68
2018-02-12T05:37:41.981Z,0.67
2018-02-12T05:38:46.177Z,0.66
2018-02-12T05:39:41.771Z,0.66
2018-02-12T05:40:41.737Z,0.67
2018-02-12T05:42:44.545Z,0.65
2018-02-12T05:43:41.755Z,0.73
2018-02-12T05:44:41.741Z,0.72
2018-02-12T05:45:41.743Z,0.7
2018-02-12T05:46:41.771Z,0.74
2018-02-12T05:47:41.730Z,0.72
2018-02-12T05:48:41.735Z,0.72
2018-02-12T05:49:41.765Z,0.68
2018-02-12T05:50:41.755Z,0.71
2018-02-12T05:51:43.359Z,0.7
2018-02-12T05:52:45.505Z,0.75
2018-02-12T05:53:45.546Z,0.72
2018-02-12T05:54:41.822Z,0.73
2018-02-12T05:55:41.797Z,0.68
2018-02-12T05:56:43.058Z,0.7
2018-02-12T05:57:44.315Z,0.66
2018-02-12T05:58:41.805Z,0.69
2018-02-12T05:59:41.795Z,0.72
2018-02-12T06:00:41.802Z,0.72
2018-02-12T06:01:41.801Z,0.69
2018-02-12T06:02:41.801Z,0.72
2018-02-12T06:03:43.859Z,0.66
2018-02-12T06:04:41.801Z,0.68
2018-02-12T06:05:45.175Z,0.64
2018-02-12T06:06:44.873Z,0.66
2018-02-12T06:07:41.800Z,0.64
2018-02-12T06:08:42.695Z,0.65
2018-02-12T06:09:44.813Z,0.64
2018-02-12T06:10:43.808Z,0.6
2018-02-12T06:11:44.902Z,0.67
2018-02-12T06:12:41.784Z,0.66
2018-02-12T06:13:41.791Z,0.65
2018-02-12T06:14:41.798Z,0.63
2018-02-12T06:15:41.792Z,0.61
2018-02-12T06:16:41.817Z,0.57
2018-02-12T06:17:41.818Z,0.61
2018-02-12T06:18:41.784Z,0.69
2018-02-12T06:19:41.829Z,0.67
2018-02-12T06:20:41.797Z,0.65
2018-02-12T06:21:41.799Z,0.68
2018-02-12T06:22:41.834Z,0.69
2018-02-12T06:23:41.811Z,0.7
2018-02-12T06:24:41.795Z,0.71
2018-02-12T06:25:42.072Z,0.67
2018-02-12T06:26:42.049Z,0.66
2018-02-12T06:27:42.095Z,0.67
2018-02-12T06:28:42.047Z,0.69
2018-02-12T06:29:42.075Z,0.71
2018-02-12T06:30:42.090Z,0.68
2018-02-12T06:31:42.063Z,0.72
2018-02-12T06:32:42.078Z,0.67
2018-02-12T06:33:42.096Z,0.67
2018-02-12T06:34:42.094Z,0.68
2018-02-12T06:35:42.078Z,0.69
2018-02-12T06:36:42.146Z,0.69
2018-02-12T06:37:42.268Z,0.68
2018-02-12T06:38:42.152Z,0.66
2018-02-12T06:39:42.044Z,0.61
2018-02-12T06:40:42.058Z,0.63
2018-02-12T06:41:42.068Z,0.62
2018-02-12T06:42:42.076Z,0.6
2018-02-12T06:43:42.083Z,0.61
2018-02-12T06:44:42.062Z,0.63
2018-02-12T06:45:42.050Z,0.6
2018-02-12T06:46:42.091Z,0.62
2018-02-12T06:47:42.067Z,0.63
2018-02-12T06:48:42.082Z,0.58
2018-02-12T06:49:42.048Z,0.56
2018-02-12T06:50:42.060Z,0.61
2018-02-12T06:51:42.037Z,0.55
2018-02-12T06:52:42.048Z,0.58
2018-02-12T06:53:42.049Z,0.58
2018-02-12T06:54:42.126Z,0.57
2018-02-12T06:55:41.350Z,0.56
2018-02-12T06:56:41.351Z,0.54
2018-02-12T06:57:41.347Z,0.55
2018-02-12T06:58:41.350Z,0.55
2018-02-12T06:59:41.372Z,0.55
2018-02-12T07:00:41.351Z,0.57
2018-02-12T07:01:41.371Z,0.58
2018-02-12T07:02:41.350Z,0.59
2018-02-12T07:03:41.361Z,0.61
2018-02-12T07:04:41.345Z,0.56
2018-02-12T07:05:41.562Z,0.55
2018-02-12T07:06:41.357Z,0.55
2018-02-12T07:07:41.340Z,0.53
2018-02-12T07:08:41.353Z,0.52
2018-02-12T07:09:41.445Z,0.55
2018-02-12T07:10:41.347Z,0.51
2018-02-12T07:11:41.456Z,0.52
2018-02-12T07:12:41.440Z,0.45
2018-02-12T07:13:41.447Z,0.47
2018-02-12T07:14:41.333Z,0.47
2018-02-12T07:15:41.400Z,0.46
2018-02-12T07:16:41.355Z,0.47
2018-02-12T07:17:41.537Z,0.39
2018-02-12T07:18:41.352Z,0.44
2018-02-12T07:19:41.721Z,0.38
2018-02-12T07:20:41.360Z,0.42
2018-02-12T07:21:41.349Z,0.42
2018-02-12T07:22:41.450Z,0.36
2018-02-12T07:23:41.346Z,0.35
2018-02-12T07:24:41.678Z,0.4
2018-02-12T07:25:41.348Z,0.37
2018-02-12T07:26:41.589Z,0.42
2018-02-12T07:27:41.979Z,0.44
2018-02-12T07:28:41.601Z,0.42
2018-02-12T07:29:41.628Z,0.4
2018-02-12T07:30:41.588Z,0.4
2018-02-12T07:31:41.602Z,0.38
2018-02-12T07:32:41.645Z,0.34
2018-02-12T07:33:41.620Z,0.36
2018-02-12T07:34:41.587Z,0.34
2018-02-12T07:35:41.601Z,0.33
2018-02-12T07:36:41.588Z,0.29
2018-02-12T07:37:41.678Z,0.28
2018-02-12T07:38:41.581Z,0.34
2018-02-12T07:39:41.578Z,0.37
2018-02-12T07:40:41.643Z,0.33
2018-02-12T07:41:42.147Z,0.37
2018-02-12T07:42:41.732Z,0.31
2018-02-12T07:43:41.627Z,0.38
2018-02-12T07:44:42.154Z,0.38
2018-02-12T07:45:41.601Z,0.41
2018-02-12T07:46:41.597Z,0.43
2018-02-12T07:47:42.122Z,0.4
2018-02-12T07:48:41.589Z,0.39
2018-02-12T07:49:42.930Z,0.42
2018-02-12T07:50:41.865Z,0.35
2018-02-12T07:51:41.597Z,0.33
2018-02-12T07:52:42.003Z,0.3
2018-02-12T07:53:41.590Z,0.28
2018-02-12T07:54:41.623Z,0.32
2018-02-12T07:55:41.604Z,0.31
2018-02-12T07:56:41.852Z,0.33
2018-02-12T07:57:41.864Z,0.34
2018-02-12T07:58:41.861Z,0.33
2018-02-12T07:59:41.876Z,0.33
2018-02-12T08:00:41.902Z,0.35
2018-02-12T08:01:41.908Z,0.29
2018-02-12T08:02:41.855Z,0.31
2018-02-12T08:03:41.931Z,0.32
2018-02-12T08:04:41.900Z,0.3
2018-02-12T08:05:42.404Z,0.31
2018-02-12T08:06:42.851Z,0.28
2018-02-12T08:07:41.850Z,0.29
2018-02-12T08:08:43.006Z,0.24
2018-02-12T08:09:41.926Z,0.28
2018-02-12T08:10:41.855Z,0.28
2018-02-12T08:11:41.926Z,0.3
2018-02-12T08:12:43.095Z,0.29
2018-02-12T08:13:41.857Z,0.36
2018-02-12T08:14:42.144Z,0.33
2018-02-12T08:15:41.858Z,0.36
2018-02-12T08:16:41.846Z,0.37
2018-02-12T08:17:41.862Z,0.38
2018-02-12T08:18:41.836Z,0.4
2018-02-12T08:19:41.867Z,0.35
2018-02-12T08:20:41.864Z,0.35
2018-02-12T08:21:41.873Z,0.39
2018-02-12T08:22:41.860Z,0.41
2018-02-12T08:23:41.840Z,0.41
2018-02-12T08:24:41.881Z,0.39
2018-02-12T08:25:41.853Z,0.4
2018-02-12T08:26:41.159Z,0.41
2018-02-12T08:27:41.157Z,0.39
2018-02-12T08:28:41.167Z,0.41
2018-02-12T08:29:41.151Z,0.37
2018-02-12T08:30:41.163Z,0.34
2018-02-12T08:31:41.140Z,0.4
2018-02-12T08:32:41.166Z,0.44
2018-02-12T08:33:41.164Z,0.44
2018-02-12T08:34:41.151Z,0.44
2018-02-12T08:35:41.166Z,0.42
2018-02-12T08:36:41.171Z,0.51
2018-02-12T08:37:41.144Z,0.47
2018-02-12T08:38:41.180Z,0.6
2018-02-12T08:39:41.224Z,0.6
2018-02-12T08:40:41.163Z,0.62
2018-02-12T08:41:41.149Z,0.62
2018-02-12T08:42:41.196Z,0.67
2018-02-12T08:43:41.146Z,0.66
2018-02-12T08:44:41.202Z,0.66
2018-02-12T08:45:41.172Z,0.7
2018-02-12T08:46:41.204Z,0.73
2018-02-12T08:47:41.210Z,0.7
2018-02-12T08:48:41.146Z,0.71
2018-02-12T08:49:41.144Z,0.71
2018-02-12T08:50:41.183Z,0.71
2018-02-12T08:51:41.168Z,0.75
2018-02-12T08:52:41.174Z,0.78
2018-02-12T08:53:41.148Z,0.8
2018-02-12T08:54:41.178Z,0.82
2018-02-12T08:55:41.214Z,0.76
2018-02-12T08:56:41.155Z,0.79
2018-02-12T08:57:41.386Z,0.82
2018-02-12T08:58:41.426Z,0.73
2018-02-12T08:59:41.383Z,0.77
2018-02-12T09:00:41.408Z,0.86
2018-02-12T09:01:41.395Z,0.84
2018-02-12T09:02:41.402Z,0.88
2018-02-12T09:03:41.406Z,0.74
2018-02-12T09:04:41.394Z,0.75
2018-02-12T09:05:41.400Z,0.76
2018-02-12T09:06:41.383Z,0.74
2018-02-12T09:07:41.412Z,0.74
2018-02-12T09:08:41.455Z,0.77
2018-02-12T09:09:41.413Z,0.78
2018-02-12T09:10:41.424Z,0.83
2018-02-12T09:11:41.384Z,0.8
2018-02-12T09:12:41.401Z,0.82
2018-02-12T09:13:41.412Z,0.8
2018-02-12T09:14:41.390Z,0.68
2018-02-12T09:15:41.421Z,0.7
2018-02-12T09:16:41.389Z,0.68
2018-02-12T09:17:41.410Z,0.64
2018-02-12T09:18:41.418Z,0.53
2018-02-12T09:19:41.417Z,0.63
2018-02-12T09:20:41.399Z,0.68
2018-02-12T09:21:41.437Z,0.66
2018-02-12T09:22:41.416Z,0.61
2018-02-12T09:23:41.410Z,0.71
2018-02-12T09:24:41.429Z,0.65
2018-02-12T09:25:41.400Z,0.67
2018-02-12T09:26:41.406Z,0.61
2018-02-12T09:27:41.735Z,0.61
2018-02-12T09:28:41.747Z,0.48
2018-02-12T09:29:41.750Z,0.55
2018-02-12T09:30:41.757Z,0.62
2018-02-12T09:31:41.783Z,0.7
2018-02-12T09:32:41.799Z,0.7
2018-02-12T09:33:41.741Z,0.73
2018-02-12T09:34:41.736Z,0.66
2018-02-12T09:35:41.774Z,0.65
2018-02-12T09:36:41.793Z,0.62
2018-02-12T09:37:41.779Z,0.6
2018-02-12T09:38:41.748Z,0.58
2018-02-12T09:39:41.744Z,0.69
2018-02-12T09:40:41.780Z,0.49
2018-02-12T09:41:41.768Z,0.46
2018-02-12T09:42:41.754Z,0.57
2018-02-12T09:43:41.744Z,0.63
2018-02-12T09:44:41.793Z,0.59
2018-02-12T09:45:41.770Z,0.65
2018-02-12T09:46:41.735Z,0.62
2018-02-12T09:47:41.756Z,0.61
2018-02-12T09:48:41.763Z,0.57
2018-02-12T09:49:41.784Z,0.67
2018-02-12T09:50:41.766Z,0.67
2018-02-12T09:51:41.795Z,0.68
2018-02-12T09:52:34.110Z,0.7
2018-02-12T09:53:33.987Z,0.8
2018-02-12T09:54:34.007Z,0.75
2018-02-12T09:55:34.006Z,0.77
2018-02-12T09:56:34.028Z,0.84
2018-02-12T09:57:34.003Z,0.69
2018-02-12T09:58:34.003Z,0.81
2018-02-12T09:59:34.005Z,0.76
2018-02-12T10:00:34.014Z,0.77
2018-02-12T10:01:34.097Z,0.64
2018-02-12T10:02:34.028Z,0.51
2018-02-12T10:03:34.020Z,0.45
2018-02-12T10:04:34.003Z,0.42
2018-02-12T10:05:33.997Z,0.45
2018-02-12T10:06:34.093Z,0.58
2018-02-12T10:07:41.216Z,0.47
2018-02-12T10:08:35.550Z,0.22
2018-02-12T10:09:39.862Z,0.33
2018-02-12T10:10:41.356Z,0.49
2018-02-12T10:11:39.725Z,0.33
2018-02-12T10:12:41.144Z,0.4
2018-02-12T10:13:42.594Z,0.4
2018-02-12T10:14:47.100Z,0.52
2018-02-12T10:15:39.364Z,0.62
2018-02-12T10:16:40.801Z,0.73
2018-02-12T10:17:42.223Z,0.55
2018-02-12T10:18:42.627Z,0.34
2018-02-12T10:19:47.136Z,0.29
2018-02-12T10:20:39.361Z,0.07
2018-02-12T10:21:37.721Z,0.08
2018-02-12T10:22:42.296Z,0.18
2018-02-12T10:23:37.599Z,-0.01
2018-02-12T10:24:42.053Z,-0.01
2018-02-12T10:25:40.556Z,-0.15
2018-02-12T10:26:41.882Z,-0.01
2018-02-12T10:27:40.241Z,-0.03
2018-02-12T10:28:41.683Z,-0.05
2018-02-12T10:29:40.064Z,-0.43
2018-02-12T10:30:38.545Z,-0.44
2018-02-12T10:31:39.862Z,-0.31
2018-02-12T10:32:41.532Z,-0.13
2018-02-12T10:33:39.815Z,-0.18
2018-02-12T10:34:44.177Z,0
2018-02-12T10:35:39.535Z,0
2018-02-12T10:36:47.055Z,-0.2
2018-02-12T10:37:39.269Z,-0.09
2018-02-12T10:38:40.711Z,-0.27
2018-02-12T10:39:42.147Z,-0.08
2018-02-12T10:40:37.452Z,-0.4
2018-02-12T10:41:41.969Z,-0.38
2018-02-12T10:42:40.434Z,-0.28
2018-02-12T10:43:41.872Z,-0.35
2018-02-12T10:44:40.265Z,-0.38
2018-02-12T10:45:41.711Z,-0.43
2018-02-12T10:46:42.110Z,-0.41
2018-02-12T10:47:44.859Z,-0.23
2018-02-12T10:48:41.917Z,-0.17
2018-02-12T10:49:40.279Z,-0.25
2018-02-12T10:50:41.721Z,-0.24
2018-02-12T10:51:40.116Z,-0.42
2018-02-12T10:52:41.523Z,-0.35
2018-02-12T10:53:39.926Z,-0.45
2018-02-12T10:54:41.336Z,-0.26
2018-02-12T10:55:42.777Z,-0.08
2018-02-12T10:56:47.412Z,0.08
2018-02-12T10:57:42.587Z,-0.05
2018-02-12T10:58:41.001Z,-0.09
2018-02-12T10:59:35.404Z,-0.17
2018-02-12T11:00:35.397Z,-0.22
2018-02-12T11:01:35.400Z,-0.36
2018-02-12T11:02:36.045Z,-0.25
2018-02-12T11:03:35.387Z,-0.19
2018-02-12T11:04:35.434Z,-0.15
2018-02-12T11:05:35.372Z,-0.08
2018-02-12T11:06:35.083Z,-0.13
2018-02-12T11:07:35.663Z,-0.1
2018-02-12T11:08:35.328Z,0.07
2018-02-12T11:09:36.015Z,0.05
2018-02-12T11:10:35.671Z,-0.14
2018-02-12T11:11:35.732Z,-0.21
2018-02-12T11:12:36.427Z,-0.26
2018-02-12T11:13:35.356Z,-0.23
2018-02-12T11:14:37.060Z,-0.08
2018-02-12T11:15:35.394Z,-0.19
2018-02-12T11:16:35.519Z,-0.2
2018-02-12T11:17:35.965Z,-0.18
2018-02-12T11:18:35.439Z,-0.42
2018-02-12T11:19:35.332Z,-0.4
2018-02-12T11:20:35.770Z,-0.58
2018-02-12T11:21:35.336Z,-0.34
2018-02-12T11:22:35.339Z,-0.4
2018-02-12T11:23:35.390Z,-0.28
2018-02-12T11:24:36.236Z,-0.24
2018-02-12T11:25:34.373Z,-0.21
2018-02-12T11:26:34.356Z,-0.21
2018-02-12T11:27:34.385Z,-0.39
2018-02-12T11:28:34.595Z,-0.42
2018-02-12T11:29:34.344Z,-0.39
2018-02-12T11:30:34.348Z,-0.29
2018-02-12T11:31:34.483Z,-0.11
2018-02-12T11:32:34.447Z,-0.44
2018-02-12T11:33:34.365Z,-0.39
2018-02-12T11:34:34.493Z,-0.49
2018-02-12T11:35:34.351Z,-0.4
2018-02-12T11:36:34.350Z,-0.51
2018-02-12T11:37:35.393Z,-0.53
2018-02-12T11:38:34.368Z,-0.26
2018-02-12T11:39:34.348Z,-0.6
2018-02-12T11:40:34.377Z,-0.79
2018-02-12T11:41:34.343Z,-0.94
2018-02-12T11:42:35.721Z,-1.09
2018-02-12T11:43:34.466Z,-1.05
2018-02-12T11:44:34.401Z,-1.02
2018-02-12T11:45:34.453Z,-0.85
2018-02-12T11:46:34.377Z,-0.75
2018-02-12T11:47:34.375Z,-0.76
2018-02-12T11:48:34.434Z,-1.04
2018-02-12T11:49:34.361Z,-0.92
2018-02-12T11:50:34.391Z,-1.13
2018-02-12T11:51:34.352Z,-0.92
2018-02-12T11:52:34.440Z,-0.86
2018-02-12T11:53:34.377Z,-0.83
2018-02-12T11:54:34.347Z,-0.81
2018-02-12T11:55:34.389Z,-0.57
2018-02-12T11:56:34.454Z,-0.63
2018-02-12T11:57:34.465Z,-0.5
2018-02-12T11:58:34.460Z,-0.39
2018-02-12T11:59:34.436Z,-0.62
2018-02-12T12:00:34.419Z,-0.85
2018-02-12T12:01:34.462Z,-0.9
2018-02-12T12:02:34.437Z,-0.75
2018-02-12T12:03:34.660Z,-0.78
2018-02-12T12:04:34.429Z,-0.95
2018-02-12T12:05:34.429Z,-0.72
2018-02-12T12:06:34.423Z,-0.94
2018-02-12T12:07:34.420Z,-0.85
2018-02-12T12:08:34.449Z,-0.64
2018-02-12T12:09:34.421Z,-0.8
2018-02-12T12:10:34.416Z,-1.12
2018-02-12T12:11:34.413Z,-0.89
2018-02-12T12:12:34.439Z,-0.96
2018-02-12T12:13:34.406Z,-1.07
2018-02-12T12:14:34.408Z,-1.44
2018-02-12T12:15:34.431Z,-1.44
2018-02-12T12:16:34.418Z,-1.32
2018-02-12T12:17:34.491Z,-1.44
2018-02-12T12:18:34.410Z,-1.15
2018-02-12T12:19:36.796Z,-1.2
2018-02-12T12:20:34.408Z,-1.23
2018-02-12T12:21:34.424Z,-1.18
2018-02-12T12:22:34.408Z,-1.13
2018-02-12T12:23:34.488Z,-1.33
2018-02-12T12:24:34.445Z,-1.37
2018-02-12T12:25:34.439Z,-1.38
2018-02-12T12:26:34.423Z,-1.39
2018-02-12T12:27:34.381Z,-1.61
2018-02-12T12:28:34.411Z,-1.58
2018-02-12T12:29:34.401Z,-1.56
2018-02-12T12:30:34.388Z,-1.6
2018-02-12T12:31:34.389Z,-1.46
2018-02-12T12:32:34.381Z,-1.61
2018-02-12T12:33:34.405Z,-1.64
2018-02-12T12:34:34.744Z,-1.46
2018-02-12T12:35:34.394Z,-1.56
2018-02-12T12:36:34.384Z,-1.37
2018-02-12T12:37:34.420Z,-1.36
2018-02-12T12:38:34.490Z,-1.48
2018-02-12T12:39:34.432Z,-1.79
2018-02-12T12:40:34.363Z,-1.78
2018-02-12T12:41:34.785Z,-1.71
2018-02-12T12:42:34.393Z,-1.72
2018-02-12T12:43:34.429Z,-1.66
2018-02-12T12:44:34.408Z,-1.66
2018-02-12T12:45:34.395Z,-1.63
2018-02-12T12:46:34.388Z,-1.6
2018-02-12T12:47:34.384Z,-1.78
2018-02-12T12:48:34.390Z,-1.63
2018-02-12T12:49:34.386Z,-1.76
2018-02-12T12:50:34.378Z,-1.53
2018-02-12T12:51:34.391Z,-1.99
2018-02-12T12:52:34.401Z,-1.74
2018-02-12T12:53:34.386Z,-1.81
2018-02-12T12:54:34.418Z,-1.99
2018-02-12T12:55:34.432Z,-1.81
2018-02-12T12:56:34.403Z,-2.18
2018-02-12T12:57:34.394Z,-1.91
2018-02-12T12:58:34.401Z,-2.07
2018-02-12T12:59:34.405Z,-2.04
2018-02-12T13:00:34.427Z,-1.84
2018-02-12T13:01:34.404Z,-1.87
2018-02-12T13:02:34.419Z,-1.54
2018-02-12T13:03:34.394Z,-1.72
2018-02-12T13:04:34.420Z,-1.71
2018-02-12T13:05:34.403Z,-1.71
2018-02-12T13:06:34.410Z,-1.71
2018-02-12T13:07:34.391Z,-1.64
2018-02-12T13:08:34.432Z,-1.8
2018-02-12T13:10:18.287Z,-1.84
2018-02-12T13:11:17.973Z,-2.04
2018-02-12T13:12:17.934Z,-2
2018-02-12T13:13:19.569Z,-2.04
2018-02-12T13:14:18.186Z,-1.85
2018-02-12T13:15:17.985Z,-1.81
2018-02-12T13:16:17.975Z,-2.12
2018-02-12T13:17:17.999Z,-2.02
2018-02-12T13:18:17.936Z,-1.89
2018-02-12T13:19:17.939Z,-1.94
2018-02-12T13:20:17.979Z,-1.93
2018-02-12T13:21:18.028Z,-1.99
2018-02-12T13:22:17.969Z,-1.86
2018-02-12T13:23:17.916Z,-1.88